Time;durP1;ratioP1;P1;durP2;ratioP2;P2;SDS_P1;SDS_P2;PMS_P1;PMS_P2;Temp;Humidity;BMP_temperature;BMP_pressure;BME280_temperature;BME280_humidity;BME280_pressure;Samples;Min_cycle;Max_cycle;Signal;HPM_P1;HPM_P2
2022/11/21 00:01:20;;;;;;;;;;;;;;;6.79;nan;100580.53;5003041;28;19917;-32
2022/11/21 00:03:46;;;;;;;;;;;;;;;6.84;nan;100575.34;5002997;28;20351;-31
2022/11/21 00:06:11;;;;;;;;;;;;;;;6.85;nan;100571.66;5005285;28;19948;-32
2022/11/21 00:08:37;;;;;;;;;;;;;;;6.87;nan;100566.91;5004888;28;19918;-31
2022/11/21 00:11:02;;;;;;;;;;;;;;;6.90;nan;100561.09;5004667;28;20282;-31
2022/11/21 00:13:27;;;;;;;;;;;;;;;6.92;nan;100558.22;5001340;28;19991;-31
2022/11/21 00:15:53;;;;;;;;;;;;;;;6.91;nan;100554.75;5005403;28;19977;-31
2022/11/21 00:18:18;;;;;;;;;;;;;;;6.94;nan;100551.63;5004598;28;19975;-32
2022/11/21 00:20:44;;;;;;;;;;;;;;;6.97;nan;100540.50;5004862;28;20423;-32
2022/11/21 00:23:09;;;;;;;;;;;;;;;7.05;nan;100541.22;5001432;28;20283;-32
2022/11/21 00:25:35;;;;;;;;;;;;;;;7.06;nan;100542.84;5002143;28;19925;-32
2022/11/21 00:28:01;;;;;;;;;;;;;;;7.09;nan;100543.19;5004974;28;19940;-31
2022/11/21 00:30:26;;;;;;;;;;;;;;;7.08;nan;100541.56;5003955;28;19925;-31
2022/11/21 00:32:52;;;;;;;;;;;;;;;7.07;nan;100544.47;5003596;28;19921;-32
2022/11/21 00:35:17;;;;;;;;;;;;;;;7.02;nan;100536.34;5000912;28;19917;-31
2022/11/21 00:37:42;;;;;;;;;;;;;;;7.04;nan;100539.59;5004290;28;20443;-32
2022/11/21 00:40:08;;;;;;;;;;;;;;;7.07;nan;100539.13;5004151;28;20310;-32
2022/11/21 00:42:33;;;;;;;;;;;;;;;7.11;nan;100529.63;5003989;28;19922;-32
2022/11/21 00:44:59;;;;;;;;;;;;;;;7.10;nan;100534.16;5002271;28;19925;-31
2022/11/21 00:47:24;;;;;;;;;;;;;;;7.10;nan;100533.34;5001083;28;20003;-32
2022/11/21 00:49:49;;;;;;;;;;;;;;;7.05;nan;100530.56;5004078;28;19945;-31
2022/11/21 00:52:15;;;;;;;;;;;;;;;7.00;nan;100525.09;5004634;28;19970;-32
2022/11/21 00:54:40;;;;;;;;;;;;;;;6.94;nan;100522.31;5004290;28;20283;-31
2022/11/21 00:57:06;;;;;;;;;;;;;;;6.88;nan;100515.25;4999241;28;19936;-32
2022/11/21 00:59:31;;;;;;;;;;;;;;;6.87;nan;100510.16;5002133;28;20101;-32
2022/11/21 01:01:57;;;;;;;;;;;;;;;6.78;nan;100507.00;5003828;28;19925;-32
2022/11/21 01:04:22;;;;;;;;;;;;;;;6.72;nan;100502.59;5003650;28;20527;-32
2022/11/21 01:06:47;;;;;;;;;;;;;;;6.72;nan;100499.94;5001345;28;20566;-32
2022/11/21 01:09:13;;;;;;;;;;;;;;;6.76;nan;100500.28;5002574;28;19917;-31
2022/11/21 01:11:38;;;;;;;;;;;;;;;6.80;nan;100498.78;5004450;28;20003;-32
2022/11/21 01:14:04;;;;;;;;;;;;;;;6.84;nan;100492.78;5002264;28;20005;-31
2022/11/21 01:16:29;;;;;;;;;;;;;;;6.80;nan;100501.44;5003719;28;19960;-31
2022/11/21 01:18:55;;;;;;;;;;;;;;;6.72;nan;100497.28;5000196;28;20384;-31
2022/11/21 01:21:22;;;;;;;;;;;;;;;6.69;nan;100495.06;5001523;28;19917;-31
2022/11/21 01:23:47;;;;;;;;;;;;;;;6.67;nan;100491.84;5004630;28;20374;-31
2022/11/21 01:26:14;;;;;;;;;;;;;;;6.66;nan;100495.53;5001558;28;19922;-32
2022/11/21 01:28:40;;;;;;;;;;;;;;;6.63;nan;100491.44;5001189;28;20018;-32
2022/11/21 01:31:10;;;;;;;;;;;;;;;6.58;nan;100499.31;5001201;28;19963;-31
2022/11/21 01:33:36;;;;;;;;;;;;;;;6.53;nan;100485.88;5003130;28;20430;-31
2022/11/21 01:36:30;;;;;;;;;;;;;;;6.46;nan;100481.69;5007723;28;19926;-31
2022/11/21 01:38:57;;;;;;;;;;;;;;;6.40;nan;100477.28;4994391;28;20121;-31
2022/11/21 01:41:24;;;;;;;;;;;;;;;6.43;nan;100479.47;5003545;28;19936;-32
2022/11/21 01:43:49;;;;;;;;;;;;;;;6.37;nan;100475.88;5006711;28;19925;-31
2022/11/21 01:46:19;;;;;;;;;;;;;;;6.31;nan;100477.63;5007160;28;20016;-31
2022/11/21 01:48:44;;;;;;;;;;;;;;;6.29;nan;100479.69;5007815;28;20349;-31
2022/11/21 01:51:09;;;;;;;;;;;;;;;6.29;nan;100485.03;5006458;28;19917;-31
2022/11/21 01:53:35;;;;;;;;;;;;;;;6.25;nan;100477.69;5003979;28;19943;-32
2022/11/21 01:56:01;;;;;;;;;;;;;;;6.24;nan;100479.53;5007623;28;19918;-32
2022/11/21 01:58:28;;;;;;;;;;;;;;;6.19;nan;100478.59;5006357;28;19975;-31
2022/11/21 02:00:53;;;;;;;;;;;;;;;6.14;nan;100481.94;5006906;28;19925;-32
2022/11/21 02:03:20;;;;;;;;;;;;;;;6.18;nan;100482.31;5003453;28;19924;-32
2022/11/21 02:05:46;;;;;;;;;;;;;;;6.24;nan;100482.19;5005831;28;19926;-31
2022/11/21 02:08:18;;;;;;;;;;;;;;;6.29;nan;100490.34;5007291;28;19918;-31
2022/11/21 02:10:55;;;;;;;;;;;;;;;6.26;nan;100490.75;5005293;28;20347;-31
2022/11/21 02:13:21;;;;;;;;;;;;;;;6.21;nan;100485.31;5005547;28;20221;-31
2022/11/21 02:15:47;;;;;;;;;;;;;;;6.20;nan;100497.00;5002347;28;19922;-31
2022/11/21 02:18:12;;;;;;;;;;;;;;;6.21;nan;100495.97;5007040;28;19917;-31
2022/11/21 02:20:40;;;;;;;;;;;;;;;6.24;nan;100503.47;5006273;28;19975;-31
2022/11/21 02:23:26;;;;;;;;;;;;;;;6.21;nan;100492.50;5005909;28;20401;-31
2022/11/21 02:25:53;;;;;;;;;;;;;;;6.13;nan;100496.28;5002518;28;19926;-31
2022/11/21 02:28:19;;;;;;;;;;;;;;;6.10;nan;100491.38;5002242;28;19922;-31
2022/11/21 02:30:45;;;;;;;;;;;;;;;6.11;nan;100489.56;5005655;28;19921;-31
2022/11/21 02:33:11;;;;;;;;;;;;;;;6.10;nan;100485.25;5006946;28;20068;-31
2022/11/21 02:35:37;;;;;;;;;;;;;;;6.13;nan;100493.63;5005385;28;19917;-32
2022/11/21 02:38:10;;;;;;;;;;;;;;;6.18;nan;100488.44;5007387;28;20215;-31
2022/11/21 02:40:38;;;;;;;;;;;;;;;6.25;nan;100491.81;5005701;28;19924;-32
2022/11/21 02:43:16;;;;;;;;;;;;;;;6.25;nan;100491.81;5005539;28;20442;-31
2022/11/21 02:45:42;;;;;;;;;;;;;;;6.30;nan;100483.16;5005476;28;20390;-31
2022/11/21 02:48:07;;;;;;;;;;;;;;;6.32;nan;100486.41;5006576;28;19924;-31
2022/11/21 02:50:34;;;;;;;;;;;;;;;6.33;nan;100486.19;5005522;28;20383;-31
2022/11/21 02:53:00;;;;;;;;;;;;;;;6.27;nan;100484.41;5006566;28;19928;-31
2022/11/21 02:55:25;;;;;;;;;;;;;;;6.22;nan;100484.28;5004123;28;19925;-31
2022/11/21 02:57:51;;;;;;;;;;;;;;;6.20;nan;100482.88;5004665;28;20481;-31
2022/11/21 03:00:17;;;;;;;;;;;;;;;6.16;nan;100479.88;5006085;28;19924;-31
2022/11/21 03:02:42;;;;;;;;;;;;;;;6.09;nan;100476.47;5004219;28;20434;-31
2022/11/21 03:05:09;;;;;;;;;;;;;;;6.07;nan;100474.03;5002652;28;19929;-32
2022/11/21 03:07:34;;;;;;;;;;;;;;;6.12;nan;100477.91;5002050;28;20503;-31
2022/11/21 03:10:00;;;;;;;;;;;;;;;6.12;nan;100470.72;5006455;28;19964;-31
2022/11/21 03:12:25;;;;;;;;;;;;;;;6.15;nan;100472.94;5005560;28;19926;-32
2022/11/21 03:14:50;;;;;;;;;;;;;;;6.22;nan;100473.63;5006121;28;19922;-31
2022/11/21 03:17:16;;;;;;;;;;;;;;;6.19;nan;100474.09;5002355;28;20705;-31
2022/11/21 03:19:41;;;;;;;;;;;;;;;6.19;nan;100473.28;5005666;28;20343;-32
2022/11/21 03:22:06;;;;;;;;;;;;;;;6.15;nan;100466.78;5006477;28;19917;-31
2022/11/21 03:24:32;;;;;;;;;;;;;;;6.07;nan;100468.72;5005794;28;21353;-32
2022/11/21 03:26:57;;;;;;;;;;;;;;;6.00;nan;100470.66;5006553;28;19928;-31
2022/11/21 03:29:22;;;;;;;;;;;;;;;5.94;nan;100470.75;5001757;28;19971;-31
2022/11/21 03:31:48;;;;;;;;;;;;;;;5.90;nan;100474.88;5004791;28;19921;-31
2022/11/21 03:34:13;;;;;;;;;;;;;;;5.80;nan;100474.59;5003952;28;19917;-31
2022/11/21 03:36:38;;;;;;;;;;;;;;;5.76;nan;100477.69;5004934;28;19921;-31
2022/11/21 03:39:04;;;;;;;;;;;;;;;5.75;nan;100484.03;5001177;28;20372;-31
2022/11/21 03:41:29;;;;;;;;;;;;;;;5.76;nan;100479.53;5003799;28;20379;-32
2022/11/21 03:43:58;;;;;;;;;;;;;;;5.72;nan;100473.81;5003977;28;20209;-31
2022/11/21 03:46:24;;;;;;;;;;;;;;;5.67;nan;100480.84;5001508;28;19921;-31
2022/11/21 03:48:49;;;;;;;;;;;;;;;5.67;nan;100471.03;4998349;28;20350;-32
2022/11/21 03:51:15;;;;;;;;;;;;;;;5.67;nan;100479.00;5004202;28;20406;-31
2022/11/21 03:53:40;;;;;;;;;;;;;;;5.68;nan;100472.66;5003955;28;19925;-31
2022/11/21 03:56:05;;;;;;;;;;;;;;;5.71;nan;100471.41;5005266;28;19917;-31
2022/11/21 03:58:31;;;;;;;;;;;;;;;5.70;nan;100467.94;5003809;28;20268;-31
2022/11/21 04:00:56;;;;;;;;;;;;;;;5.74;nan;100473.59;5002430;28;20533;-33
2022/11/21 04:03:21;;;;;;;;;;;;;;;5.73;nan;100472.78;5004162;28;20430;-32
2022/11/21 04:05:47;;;;;;;;;;;;;;;5.73;nan;100471.97;5002865;28;19930;-32
2022/11/21 04:08:12;;;;;;;;;;;;;;;5.76;nan;100469.72;5004261;28;19967;-33
2022/11/21 04:10:37;;;;;;;;;;;;;;;5.79;nan;100479.09;5002943;28;19980;-33
2022/11/21 04:13:03;;;;;;;;;;;;;;;5.80;nan;100475.38;5005670;28;20038;-33
2022/11/21 04:15:28;;;;;;;;;;;;;;;5.83;nan;100482.09;5000959;28;20025;-32
2022/11/21 04:17:53;;;;;;;;;;;;;;;5.86;nan;100479.00;5006080;28;19999;-33
2022/11/21 04:20:19;;;;;;;;;;;;;;;5.88;nan;100476.91;5001378;28;19932;-33
2022/11/21 04:22:44;;;;;;;;;;;;;;;5.87;nan;100481.44;5003397;28;19921;-33
2022/11/21 04:25:10;;;;;;;;;;;;;;;5.91;nan;100476.50;5004453;28;19933;-33
2022/11/21 04:27:35;;;;;;;;;;;;;;;5.94;nan;100473.41;5002953;28;20269;-33
2022/11/21 04:30:00;;;;;;;;;;;;;;;5.98;nan;100482.56;5004880;28;20008;-32
2022/11/21 04:32:26;;;;;;;;;;;;;;;6.00;nan;100480.50;5000577;28;19926;-33
2022/11/21 04:34:51;;;;;;;;;;;;;;;6.03;nan;100482.69;5005292;28;20387;-32
2022/11/21 04:37:17;;;;;;;;;;;;;;;6.08;nan;100480.16;5003202;28;19929;-32
2022/11/21 04:39:42;;;;;;;;;;;;;;;6.10;nan;100491.38;5004323;28;20577;-33
2022/11/21 04:42:07;;;;;;;;;;;;;;;6.07;nan;100494.50;4999423;28;19944;-33
2022/11/21 04:44:32;;;;;;;;;;;;;;;6.06;nan;100488.38;5003177;28;19925;-32
2022/11/21 04:46:59;;;;;;;;;;;;;;;6.09;nan;100487.09;5002924;28;19955;-32
2022/11/21 04:49:24;;;;;;;;;;;;;;;6.13;nan;100488.31;5003390;28;20363;-33
2022/11/21 04:51:49;;;;;;;;;;;;;;;6.18;nan;100480.44;5004233;28;19925;-32
2022/11/21 04:54:15;;;;;;;;;;;;;;;6.24;nan;100481.38;5002275;28;19917;-32
2022/11/21 04:56:40;;;;;;;;;;;;;;;6.24;nan;100487.53;5004734;28;19918;-32
2022/11/21 04:59:05;;;;;;;;;;;;;;;6.28;nan;100485.22;5004685;28;19924;-33
2022/11/21 05:01:31;;;;;;;;;;;;;;;6.30;nan;100489.31;5004541;28;20008;-33
2022/11/21 05:03:56;;;;;;;;;;;;;;;6.33;nan;100486.19;5000517;28;19933;-33
2022/11/21 05:06:21;;;;;;;;;;;;;;;6.36;nan;100487.56;5001663;28;19921;-33
2022/11/21 05:08:47;;;;;;;;;;;;;;;6.36;nan;100493.72;5002939;28;19928;-32
2022/11/21 05:13:56;;;;;;;;;;;;;;;6.27;nan;100487.06;5004997;28;19928;-33
2022/11/21 05:16:21;;;;;;;;;;;;;;;6.17;nan;100486.81;5003119;28;19921;-33
2022/11/21 05:18:47;;;;;;;;;;;;;;;6.10;nan;100483.41;5008353;28;19928;-32
2022/11/21 05:21:12;;;;;;;;;;;;;;;6.09;nan;100479.13;5008590;28;19917;-32
2022/11/21 05:23:37;;;;;;;;;;;;;;;6.08;nan;100482.81;5008159;28;20200;-33
2022/11/21 05:26:03;;;;;;;;;;;;;;;6.11;nan;100470.94;5006053;28;20379;-33
2022/11/21 05:28:28;;;;;;;;;;;;;;;6.06;nan;100474.25;5004770;28;19925;-33
2022/11/21 05:30:53;;;;;;;;;;;;;;;6.06;nan;100466.28;5007766;28;19928;-32
2022/11/21 05:33:19;;;;;;;;;;;;;;;6.02;nan;100468.59;5006911;28;19917;-33
2022/11/21 05:35:44;;;;;;;;;;;;;;;6.00;nan;100460.03;5006186;28;19926;-33
2022/11/21 05:38:10;;;;;;;;;;;;;;;6.01;nan;100452.84;5004462;28;19917;-32
2022/11/21 05:40:35;;;;;;;;;;;;;;;5.96;nan;100453.53;5007047;28;19927;-33
2022/11/21 05:45:44;;;;;;;;;;;;;;;5.95;nan;100454.56;5005185;28;20004;-33
2022/11/21 05:48:09;;;;;;;;;;;;;;;5.98;nan;100458.63;5005035;28;20394;-33
2022/11/21 05:50:35;;;;;;;;;;;;;;;6.01;nan;100458.19;5004941;28;20060;-33
2022/11/21 05:53:02;;;;;;;;;;;;;;;6.03;nan;100469.41;5006928;28;19925;-33
2022/11/21 05:55:27;;;;;;;;;;;;;;;6.03;nan;100464.88;5005333;28;20012;-32
2022/11/21 05:57:53;;;;;;;;;;;;;;;6.10;nan;100464.78;5006995;28;20012;-32
2022/11/21 06:00:18;;;;;;;;;;;;;;;6.03;nan;100459.56;5004134;28;20008;-32
2022/11/21 06:05:28;;;;;;;;;;;;;;;5.99;nan;100457.59;5005535;28;19980;-32
2022/11/21 06:07:54;;;;;;;;;;;;;;;5.87;nan;100454.84;5006011;28;19925;-32
2022/11/21 06:10:19;;;;;;;;;;;;;;;5.83;nan;100447.53;5002721;28;20271;-33
2022/11/21 06:12:44;;;;;;;;;;;;;;;5.79;nan;100457.81;5019214;28;20075;-32
2022/11/21 06:15:10;;;;;;;;;;;;;;;5.79;nan;100459.66;5005072;28;19961;-33
2022/11/21 06:17:35;;;;;;;;;;;;;;;5.78;nan;100464.16;5004605;28;19964;-32
2022/11/21 06:20:00;;;;;;;;;;;;;;;5.80;nan;100461.28;5004461;28;19932;-32
2022/11/21 06:22:26;;;;;;;;;;;;;;;5.80;nan;100464.75;5006169;28;19929;-33
2022/11/21 06:24:51;;;;;;;;;;;;;;;5.80;nan;100458.63;5005927;28;20387;-32
2022/11/21 06:27:16;;;;;;;;;;;;;;;5.73;nan;100459.50;5007455;28;19972;-32
2022/11/21 06:29:42;;;;;;;;;;;;;;;5.67;nan;100472.88;5006798;28;19975;-32
2022/11/21 06:32:07;;;;;;;;;;;;;;;5.68;nan;100470.00;5004369;28;19921;-33
2022/11/21 06:34:33;;;;;;;;;;;;;;;5.68;nan;100474.50;4999181;28;19926;-33
2022/11/21 06:36:58;;;;;;;;;;;;;;;5.74;nan;100476.25;5002350;28;19921;-32
2022/11/21 06:39:24;;;;;;;;;;;;;;;5.79;nan;100479.09;5006260;28;19917;-33
2022/11/21 06:41:49;;;;;;;;;;;;;;;5.80;nan;100463.94;5005260;28;20346;-33
2022/11/21 06:44:16;;;;;;;;;;;;;;;5.80;nan;100469.25;5005649;28;20105;-33
2022/11/21 06:46:41;;;;;;;;;;;;;;;5.80;nan;100475.38;5006326;28;19967;-33
2022/11/21 06:49:07;;;;;;;;;;;;;;;5.81;nan;100479.66;5007463;28;20185;-33
2022/11/21 06:51:32;;;;;;;;;;;;;;;5.80;nan;100482.56;5006768;28;19926;-33
2022/11/21 06:53:58;;;;;;;;;;;;;;;5.78;nan;100479.31;5006574;28;19925;-32
2022/11/21 06:56:28;;;;;;;;;;;;;;;5.78;nan;100477.47;5006965;28;19917;-33
2022/11/21 06:58:53;;;;;;;;;;;;;;;5.79;nan;100484.41;5006697;28;19917;-32
2022/11/21 07:01:19;;;;;;;;;;;;;;;5.85;nan;100485.34;5006884;28;20453;-32
2022/11/21 07:03:44;;;;;;;;;;;;;;;5.83;nan;100485.56;5006280;28;19925;-32
2022/11/21 07:06:10;;;;;;;;;;;;;;;5.88;nan;100482.25;5006991;28;20177;-32
2022/11/21 07:08:36;;;;;;;;;;;;;;;5.89;nan;100487.31;5006383;28;20311;-32
2022/11/21 07:11:05;;;;;;;;;;;;;;;5.87;nan;100483.28;5006728;28;20035;-32
2022/11/21 07:13:31;;;;;;;;;;;;;;;5.89;nan;100495.31;5006241;28;19928;-32
2022/11/21 07:16:04;;;;;;;;;;;;;;;5.93;nan;100488.56;5007403;28;19917;-32
2022/11/21 07:18:29;;;;;;;;;;;;;;;5.97;nan;100491.59;5006197;28;19925;-32
2022/11/21 07:21:02;;;;;;;;;;;;;;;6.02;nan;100491.72;5006682;28;19923;-33
2022/11/21 07:23:28;;;;;;;;;;;;;;;6.05;nan;100496.56;5005595;28;19949;-32
2022/11/21 07:25:53;;;;;;;;;;;;;;;6.06;nan;100493.69;5006465;28;19921;-32
2022/11/21 07:28:19;;;;;;;;;;;;;;;6.11;nan;100495.69;5006023;28;19921;-32
2022/11/21 07:30:45;;;;;;;;;;;;;;;6.13;nan;100506.94;5005346;28;20575;-33
2022/11/21 07:33:10;;;;;;;;;;;;;;;6.17;nan;100500.13;5004966;28;19972;-33
2022/11/21 07:35:35;;;;;;;;;;;;;;;6.19;nan;100498.03;5005916;28;19964;-32
2022/11/21 07:38:01;;;;;;;;;;;;;;;6.21;nan;100497.81;5006897;28;19972;-32
2022/11/21 07:40:27;;;;;;;;;;;;;;;6.25;nan;100498.97;5005364;28;19948;-33
2022/11/21 07:42:53;;;;;;;;;;;;;;;6.28;nan;100509.16;5006358;28;19917;-32
2022/11/21 07:45:18;;;;;;;;;;;;;;;6.30;nan;100513.25;5005302;28;19931;-32
2022/11/21 07:47:44;;;;;;;;;;;;;;;6.33;nan;100512.78;5006197;28;19925;-32
2022/11/21 07:50:10;;;;;;;;;;;;;;;6.38;nan;100513.97;5005881;28;19972;-32
2022/11/21 07:52:36;;;;;;;;;;;;;;;6.42;nan;100515.94;5005147;28;19960;-32
2022/11/21 07:55:02;;;;;;;;;;;;;;;6.47;nan;100515.28;5006082;28;20375;-32
2022/11/21 07:57:28;;;;;;;;;;;;;;;6.48;nan;100523.03;5004985;28;19936;-33
2022/11/21 07:59:53;;;;;;;;;;;;;;;6.48;nan;100525.69;5005949;28;19917;-32
2022/11/21 08:02:20;;;;;;;;;;;;;;;6.51;nan;100524.41;5005199;28;19925;-32
2022/11/21 08:04:45;;;;;;;;;;;;;;;6.54;nan;100529.28;5004688;28;19926;-33
2022/11/21 08:07:11;;;;;;;;;;;;;;;6.55;nan;100522.94;5006248;28;19941;-33
2022/11/21 08:09:36;;;;;;;;;;;;;;;6.58;nan;100525.94;5005661;28;19921;-32
2022/11/21 08:12:02;;;;;;;;;;;;;;;6.60;nan;100523.84;5006488;28;20008;-32
2022/11/21 08:14:27;;;;;;;;;;;;;;;6.63;nan;100520.75;5004932;28;20391;-33
2022/11/21 08:16:52;;;;;;;;;;;;;;;6.67;nan;100518.47;5006203;28;20371;-32
2022/11/21 08:19:17;;;;;;;;;;;;;;;6.71;nan;100521.47;5005227;28;20435;-33
2022/11/21 08:21:43;;;;;;;;;;;;;;;6.74;nan;100524.47;5005505;28;19971;-32
2022/11/21 08:24:12;;;;;;;;;;;;;;;6.75;nan;100526.09;5005288;28;19921;-33
2022/11/21 08:26:37;;;;;;;;;;;;;;;6.78;nan;100536.28;5004868;28;20422;-32
2022/11/21 08:29:03;;;;;;;;;;;;;;;6.79;nan;100529.94;5005818;28;19921;-32
2022/11/21 08:31:28;;;;;;;;;;;;;;;6.81;nan;100532.34;5004690;28;20635;-33
2022/11/21 08:33:56;;;;;;;;;;;;;;;6.84;nan;100538.06;5005243;28;20370;-32
2022/11/21 08:36:22;;;;;;;;;;;;;;;6.87;nan;100532.28;5005151;28;20311;-32
2022/11/21 08:38:47;;;;;;;;;;;;;;;6.91;nan;100533.44;5005088;28;19917;-32
2022/11/21 08:43:56;;;;;;;;;;;;;;;6.95;nan;100528.44;5006293;28;19971;-33
2022/11/21 08:46:26;;;;;;;;;;;;;;;6.94;nan;100540.97;5009729;28;20370;-32
2022/11/21 08:48:51;;;;;;;;;;;;;;;6.93;nan;100535.88;5007940;28;19921;-32
2022/11/21 08:51:17;;;;;;;;;;;;;;;6.92;nan;100532.41;5008845;28;19918;-32
2022/11/21 08:53:42;;;;;;;;;;;;;;;6.92;nan;100542.22;5008338;28;19918;-33
2022/11/21 08:56:07;;;;;;;;;;;;;;;6.93;nan;100541.19;5009654;28;19976;-33
2022/11/21 08:58:33;;;;;;;;;;;;;;;6.94;nan;100542.81;5008747;28;20505;-33
2022/11/21 09:00:59;;;;;;;;;;;;;;;6.93;nan;100549.19;5008960;28;19956;-33
2022/11/21 09:03:24;;;;;;;;;;;;;;;6.90;nan;100541.66;5008929;28;19929;-32
2022/11/21 09:05:49;;;;;;;;;;;;;;;6.91;nan;100543.28;5008816;28;19922;-33
2022/11/21 09:08:15;;;;;;;;;;;;;;;6.91;nan;100545.94;5009345;28;19918;-32
2022/11/21 09:10:40;;;;;;;;;;;;;;;6.89;nan;100537.38;5008918;28;19921;-33
2022/11/21 09:13:05;;;;;;;;;;;;;;;6.80;nan;100544.06;5008932;28;19918;-33
2022/11/21 09:18:14;;;;;;;;;;;;;;;6.66;nan;100554.09;5006120;28;20011;-33
2022/11/21 09:20:41;;;;;;;;;;;;;;;6.64;nan;100557.00;5008520;28;19976;-32
2022/11/21 09:23:10;;;;;;;;;;;;;;;6.62;nan;100558.22;5009150;28;20079;-32
2022/11/21 09:25:36;;;;;;;;;;;;;;;6.62;nan;100563.56;5008403;28;19926;-33
2022/11/21 09:28:02;;;;;;;;;;;;;;;6.69;nan;100558.16;5008947;28;19925;-33
2022/11/21 09:30:27;;;;;;;;;;;;;;;6.73;nan;100564.66;5007590;28;21506;-33
2022/11/21 09:32:53;;;;;;;;;;;;;;;6.76;nan;100565.00;5009015;28;20307;-33
2022/11/21 09:35:19;;;;;;;;;;;;;;;6.83;nan;100575.56;5007902;28;20172;-33
2022/11/21 09:37:44;;;;;;;;;;;;;;;6.88;nan;100568.53;5008246;28;20147;-33
2022/11/21 09:40:15;;;;;;;;;;;;;;;6.91;nan;100576.06;5008194;28;20394;-32
2022/11/21 09:43:09;;;;;;;;;;;;;;;6.96;nan;100573.50;5008755;28;19922;-32
2022/11/21 09:45:43;;;;;;;;;;;;;;;6.98;nan;100571.41;4998690;28;19933;-32
2022/11/21 09:48:16;;;;;;;;;;;;;;;7.02;nan;100578.97;5006955;28;20341;-33
2022/11/21 09:50:43;;;;;;;;;;;;;;;7.04;nan;100566.25;5005272;28;19917;-33
2022/11/21 09:53:16;;;;;;;;;;;;;;;7.07;nan;100569.25;5005068;28;19921;-32
2022/11/21 09:55:41;;;;;;;;;;;;;;;7.10;nan;100570.66;5007560;28;19925;-32
2022/11/21 09:58:15;;;;;;;;;;;;;;;7.13;nan;100567.50;5009043;28;19922;-33
2022/11/21 10:00:40;;;;;;;;;;;;;;;7.17;nan;100566.81;5024179;22;19995;-31
2022/11/21 10:03:10;;;;;;;;;;;;;;;7.21;nan;100565.34;5016582;28;20389;-31
2022/11/21 10:05:40;;;;;;;;;;;;;;;7.27;nan;100571.59;5016449;28;19921;-31
2022/11/21 10:08:16;;;;;;;;;;;;;;;7.28;nan;100566.03;5016671;28;19939;-31
2022/11/21 10:10:41;;;;;;;;;;;;;;;7.33;nan;100575.19;5019934;28;19924;-31
2022/11/21 10:13:21;;;;;;;;;;;;;;;7.36;nan;100575.56;5023448;28;19917;-31
2022/11/21 10:15:47;;;;;;;;;;;;;;;7.39;nan;100584.94;5021816;28;19964;-31
2022/11/21 10:18:18;;;;;;;;;;;;;;;7.37;nan;100582.50;5022737;28;19960;-31
2022/11/21 10:20:47;;;;;;;;;;;;;;;7.30;nan;100581.78;5020632;28;19986;-31
2022/11/21 10:23:15;;;;;;;;;;;;;;;7.20;nan;100586.88;5022204;28;19970;-31
2022/11/21 10:25:44;;;;;;;;;;;;;;;7.17;nan;100582.00;5020016;28;19921;-31
2022/11/21 10:28:21;;;;;;;;;;;;;;;7.13;nan;100578.16;5023642;28;19917;-31
2022/11/21 10:30:48;;;;;;;;;;;;;;;7.11;nan;100582.91;5021089;28;19971;-31
2022/11/21 10:33:16;;;;;;;;;;;;;;;7.12;nan;100580.03;5021599;28;19924;-31
2022/11/21 10:35:48;;;;;;;;;;;;;;;7.15;nan;100582.22;5020339;28;19999;-31
2022/11/21 10:38:19;;;;;;;;;;;;;;;7.19;nan;100582.59;5021316;28;19928;-31
2022/11/21 10:40:49;;;;;;;;;;;;;;;7.22;nan;100579.47;5019920;28;20019;-31
2022/11/21 10:45:58;;;;;;;;;;;;;;;7.26;nan;100591.28;5020543;28;20350;-31
2022/11/21 10:48:23;;;;;;;;;;;;;;;7.27;nan;100590.25;5022194;28;19925;-31
2022/11/21 10:50:57;;;;;;;;;;;;;;;7.27;nan;100588.41;5021194;28;20157;-31
2022/11/21 10:56:11;;;;;;;;;;;;;;;7.26;nan;100591.28;5019939;28;19959;-31
2022/11/21 10:58:36;;;;;;;;;;;;;;;7.27;nan;100596.38;5021657;28;20222;-31
2022/11/21 11:01:01;;;;;;;;;;;;;;;7.28;nan;100595.34;5021839;28;20371;-31
2022/11/21 11:03:28;;;;;;;;;;;;;;;7.31;nan;100595.94;5021422;28;19952;-31
2022/11/21 11:05:58;;;;;;;;;;;;;;;7.32;nan;100598.34;5018025;28;19925;-31
2022/11/21 11:08:23;;;;;;;;;;;;;;;7.34;nan;100600.78;5020742;28;19963;-31
2022/11/21 11:11:03;;;;;;;;;;;;;;;7.34;nan;100611.44;5021935;28;19929;-31
2022/11/21 11:13:32;;;;;;;;;;;;;;;7.36;nan;100606.69;5021223;28;20042;-31
2022/11/21 11:16:03;;;;;;;;;;;;;;;7.27;nan;100612.38;5023376;28;20519;-31
2022/11/21 11:18:30;;;;;;;;;;;;;;;7.26;nan;100607.28;5022365;28;19932;-31
2022/11/21 11:21:16;;;;;;;;;;;;;;;7.23;nan;100607.75;5019818;28;19983;-31
2022/11/21 11:23:41;;;;;;;;;;;;;;;7.23;nan;100605.09;5018628;28;19965;-31
2022/11/21 11:26:27;;;;;;;;;;;;;;;7.26;nan;100608.09;5022188;28;20066;-31
2022/11/21 11:28:54;;;;;;;;;;;;;;;7.19;nan;100602.06;5019128;28;20385;-31
2022/11/21 11:31:20;;;;;;;;;;;;;;;7.13;nan;100604.81;5018158;28;20115;-31
2022/11/21 11:33:53;;;;;;;;;;;;;;;7.11;nan;100607.72;5021917;28;19921;-31
2022/11/21 11:36:30;;;;;;;;;;;;;;;7.11;nan;100604.22;5014201;28;19925;-31
2022/11/21 11:38:57;;;;;;;;;;;;;;;7.12;nan;100613.84;5008938;28;20337;-31
2022/11/21 11:47:32;;;;;;;;;;;;;;;7.07;nan;100619.06;5018032;28;19927;-31
2022/11/21 11:50:10;;;;;;;;;;;;;;;6.97;nan;100616.94;5020434;28;19917;-31
2022/11/21 11:52:42;;;;;;;;;;;;;;;6.89;nan;100620.75;5019968;28;19927;-31
2022/11/21 11:55:16;;;;;;;;;;;;;;;6.86;nan;100609.75;5013961;28;20432;-31
2022/11/21 11:57:42;;;;;;;;;;;;;;;6.82;nan;100614.72;5016313;28;19928;-31
2022/11/21 12:00:16;;;;;;;;;;;;;;;6.81;nan;100606.91;5015617;28;20461;-32
2022/11/21 12:02:48;;;;;;;;;;;;;;;6.76;nan;100602.28;5014431;28;19984;-31
2022/11/21 12:05:18;;;;;;;;;;;;;;;6.67;nan;100603.66;5014099;28;19921;-31
2022/11/21 12:07:48;;;;;;;;;;;;;;;6.59;nan;100607.41;5020976;28;19921;-31
2022/11/21 12:10:18;;;;;;;;;;;;;;;6.53;nan;100602.19;5015488;28;19975;-31
2022/11/21 12:13:02;;;;;;;;;;;;;;;6.46;nan;100612.09;5018215;28;19921;-31
2022/11/21 12:15:48;;;;;;;;;;;;;;;6.30;nan;100598.38;5017965;28;19925;-31
2022/11/21 12:18:14;;;;;;;;;;;;;;;6.25;nan;100606.22;5016792;28;19921;-31
2022/11/21 12:20:58;;;;;;;;;;;;;;;6.25;nan;100605.41;5017461;28;20641;-31
2022/11/21 12:23:26;;;;;;;;;;;;;;;6.27;nan;100612.13;5016094;28;20019;-32
2022/11/21 12:26:12;;;;;;;;;;;;;;;6.31;nan;100601.88;5013689;28;19924;-31
2022/11/21 12:28:49;;;;;;;;;;;;;;;6.36;nan;100605.47;4990566;28;20403;-31
2022/11/21 12:31:23;;;;;;;;;;;;;;;6.36;nan;100608.13;5014602;28;20422;-31
2022/11/21 12:33:55;;;;;;;;;;;;;;;6.33;nan;100608.59;5014491;28;19925;-31
2022/11/21 12:36:28;;;;;;;;;;;;;;;6.35;nan;100606.50;5012847;28;20268;-31
2022/11/21 12:39:03;;;;;;;;;;;;;;;6.39;nan;100611.38;5018496;28;19928;-31
2022/11/21 12:44:51;;;;;;;;;;;;;;;6.50;nan;100613.28;5013187;28;20425;-31
2022/11/21 12:54:29;;;;;;;;;;;;;;;6.56;nan;100599.88;5014390;28;19929;-31
2022/11/21 12:56:10;;;;;;;;;;;;;;;6.50;nan;100610.63;5015349;28;20425;-31
2022/11/21 12:58:39;;;;;;;;;;;;;;;6.45;nan;100613.94;5014380;28;20449;-31
2022/11/21 13:01:15;;;;;;;;;;;;;;;6.30;nan;100617.00;5012613;28;19960;-31
2022/11/21 13:03:51;;;;;;;;;;;;;;;6.10;nan;100619.06;5014754;28;19921;-31
2022/11/21 13:06:20;;;;;;;;;;;;;;;6.05;nan;100617.06;5014249;28;19940;-31
2022/11/21 13:08:47;;;;;;;;;;;;;;;6.03;nan;100621.00;5013460;28;19929;-31
2022/11/21 13:14:15;;;;;;;;;;;;;;;6.03;nan;100635.09;5014663;28;19928;-31
2022/11/21 13:16:45;;;;;;;;;;;;;;;6.03;nan;100628.97;5017301;28;20358;-31
2022/11/21 13:19:26;;;;;;;;;;;;;;;6.06;nan;100628.53;5015932;28;19917;-31
2022/11/21 13:21:53;;;;;;;;;;;;;;;6.00;nan;100626.75;5014063;28;20109;-31
2022/11/21 13:24:38;;;;;;;;;;;;;;;6.02;nan;100628.16;5016606;28;21381;-31
2022/11/21 13:27:03;;;;;;;;;;;;;;;5.95;nan;100621.31;5015916;28;19975;-31
2022/11/21 13:29:28;;;;;;;;;;;;;;;5.93;nan;100623.38;4997039;28;19957;-31
2022/11/21 13:31:54;;;;;;;;;;;;;;;5.92;nan;100619.88;5019543;28;19922;-31
2022/11/21 13:34:36;;;;;;;;;;;;;;;5.91;nan;100617.44;5019134;28;19925;-31
2022/11/21 13:37:02;;;;;;;;;;;;;;;5.89;nan;100627.44;5020981;28;19918;-31
2022/11/21 13:39:32;;;;;;;;;;;;;;;5.88;nan;100623.16;5021514;28;19963;-31
2022/11/21 13:44:41;;;;;;;;;;;;;;;5.87;nan;100619.69;5019509;28;19944;-31
2022/11/21 13:47:09;;;;;;;;;;;;;;;5.87;nan;100619.69;5020330;28;20382;-31
2022/11/21 13:49:37;;;;;;;;;;;;;;;5.85;nan;100619.09;5017372;28;19921;-31